Time;durP1;ratioP1;P1;durP2;ratioP2;P2;SDS_P1;SDS_P2;PMS_P1;PMS_P2;Temp;Humidity;BMP_temperature;BMP_pressure;BME280_temperature;BME280_humidity;BME280_pressure;Samples;Min_cycle;Max_cycle;Signal;HPM_P1;HPM_P2
2023/12/21 00:01:58;;;;;;;2.63;0.60;;;;;;;5.03;68.79;97368.97;6122202;29;20208;-43
2023/12/21 00:05:01;;;;;;;0.83;0.50;;;;;;;5.00;70.08;97379.97;6135067;28;20187;-42
2023/12/21 00:08:04;;;;;;;2.93;0.60;;;;;;;5.12;69.11;97368.50;6144467;28;20688;-42
2023/12/21 00:11:07;;;;;;;3.00;0.50;;;;;;;5.07;69.73;97372.78;6111339;29;20742;-43
2023/12/21 00:14:10;;;;;;;0.87;0.60;;;;;;;5.12;68.79;97351.84;6113514;29;20206;-42
2023/12/21 00:17:12;;;;;;;1.47;0.90;;;;;;;5.10;69.88;97373.19;6117540;29;20206;-44
2023/12/21 00:20:16;;;;;;;0.40;0.40;;;;;;;5.30;69.26;97351.91;6110595;29;20574;-43
2023/12/21 00:23:20;;;;;;;1.27;0.47;;;;;;;5.51;67.93;97355.16;6112307;29;20223;-43
2023/12/21 00:26:22;;;;;;;1.10;0.40;;;;;;;5.35;68.09;97349.41;6106600;29;20192;-42
2023/12/21 00:29:25;;;;;;;1.27;0.40;;;;;;;5.36;68.57;97372.16;6114092;29;20192;-42
2023/12/21 00:32:27;;;;;;;3.40;0.73;;;;;;;5.37;69.63;97368.50;6112600;29;20214;-42
2023/12/21 00:35:32;;;;;;;1.20;0.50;;;;;;;5.23;69.96;97361.72;6111408;29;20204;-42
2023/12/21 00:38:36;;;;;;;0.73;0.50;;;;;;;5.29;70.06;97367.97;6112071;29;20217;-43
2023/12/21 00:41:39;;;;;;;1.83;0.70;;;;;;;5.14;71.56;97357.72;6107911;29;20296;-43
2023/12/21 00:44:42;;;;;;;0.93;0.60;;;;;;;5.06;71.53;97369.34;6115446;29;20673;-43
2023/12/21 00:47:45;;;;;;;0.50;0.50;;;;;;;5.11;72.04;97369.50;6113226;29;20208;-43
2023/12/21 00:50:49;;;;;;;0.97;0.67;;;;;;;5.32;70.21;97349.03;6115783;29;20608;-43
2023/12/21 00:53:51;;;;;;;0.50;0.50;;;;;;;4.96;72.83;97345.25;6115725;29;20712;-42
2023/12/21 00:56:54;;;;;;;1.20;0.40;;;;;;;5.20;71.53;97341.00;6116505;29;20224;-42
2023/12/21 00:59:57;;;;;;;1.17;0.50;;;;;;;5.04;72.79;97346.84;6109843;29;20259;-43
2023/12/21 01:03:00;;;;;;;3.03;0.50;;;;;;;5.06;72.37;97347.41;6108862;29;20558;-42
2023/12/21 01:06:02;;;;;;;0.73;0.50;;;;;;;4.83;74.31;97346.16;6109984;29;20721;-42
2023/12/21 01:09:05;;;;;;;0.70;0.60;;;;;;;4.95;73.22;97338.38;6113249;29;20196;-42
2023/12/21 01:12:10;;;;;;;1.23;0.70;;;;;;;5.17;72.32;97330.88;6115678;29;20228;-42
2023/12/21 01:15:13;;;;;;;0.50;0.50;;;;;;;5.09;72.32;97312.69;6112860;29;20661;-42
2023/12/21 01:18:15;;;;;;;1.53;0.50;;;;;;;5.11;72.71;97344.94;6107002;29;20201;-42
2023/12/21 01:21:18;;;;;;;0.53;0.53;;;;;;;4.92;73.72;97328.22;6108366;29;20228;-42
2023/12/21 01:24:20;;;;;;;0.70;0.40;;;;;;;4.77;75.00;97314.53;6111861;29;20282;-44
2023/12/21 01:27:23;;;;;;;2.00;0.60;;;;;;;4.68;76.20;97316.63;6108540;29;20199;-42
2023/12/21 01:30:34;;;;;;;1.10;0.60;;;;;;;4.55;76.12;97324.63;6111199;29;20606;-43
2023/12/21 01:33:36;;;;;;;1.13;0.43;;;;;;;4.62;76.54;97314.81;6110780;29;20224;-43
2023/12/21 01:36:39;;;;;;;0.60;0.60;;;;;;;4.65;76.68;97302.03;6111549;29;20199;-44
2023/12/21 01:39:43;;;;;;;0.70;0.43;;;;;;;4.56;76.85;97292.75;6109701;29;20227;-42
2023/12/21 01:42:45;;;;;;;0.40;0.40;;;;;;;4.63;76.51;97282.16;6111061;29;20214;-43
2023/12/21 01:45:48;;;;;;;1.87;0.63;;;;;;;4.40;77.99;97290.63;6109466;29;20200;-41
2023/12/21 01:48:52;;;;;;;1.70;0.70;;;;;;;4.28;78.41;97292.31;6107841;29;20688;-42
2023/12/21 01:51:55;;;;;;;1.10;0.40;;;;;;;4.51;76.95;97281.22;6115031;29;20781;-43
2023/12/21 01:54:59;;;;;;;2.17;0.50;;;;;;;4.62;76.59;97299.81;6110484;29;20330;-44
2023/12/21 01:58:02;;;;;;;1.00;0.40;;;;;;;4.82;75.61;97297.03;6113589;29;20232;-45
2023/12/21 02:01:07;;;;;;;0.87;0.50;;;;;;;4.71;75.43;97278.44;6101731;29;20371;-43
2023/12/21 02:04:10;;;;;;;1.60;0.70;;;;;;;4.81;75.44;97260.31;6106587;29;20286;-43
2023/12/21 02:07:13;;;;;;;1.10;0.50;;;;;;;4.73;75.83;97279.88;6111613;29;20204;-42
2023/12/21 02:10:17;;;;;;;1.23;0.40;;;;;;;4.65;76.36;97282.75;6113282;28;20191;-42
2023/12/21 02:13:21;;;;;;;1.20;0.50;;;;;;;4.61;77.15;97284.19;6121554;29;20215;-42
2023/12/21 02:16:45;;;;;;;1.73;0.33;;;;;;;4.50;78.17;97267.22;6130043;29;20296;-42
2023/12/21 02:19:50;;;;;;;1.27;0.40;;;;;;;4.45;78.47;97260.97;6129677;28;20298;-42
2023/12/21 02:22:54;;;;;;;0.90;0.40;;;;;;;4.53;76.66;97242.25;6134103;28;20279;-42
2023/12/21 02:25:57;;;;;;;1.97;0.43;;;;;;;4.58;77.26;97263.50;6131579;28;20207;-42
2023/12/21 02:28:59;;;;;;;0.60;0.57;;;;;;;4.54;77.49;97254.44;6131765;29;20732;-43
2023/12/21 02:32:02;;;;;;;1.53;0.30;;;;;;;4.60;76.95;97246.47;6138837;29;20667;-43
2023/12/21 02:35:05;;;;;;;1.80;0.50;;;;;;;4.63;77.52;97232.84;6132207;28;20210;-42
2023/12/21 02:38:09;;;;;;;1.47;0.60;;;;;;;4.64;77.19;97231.03;6135459;28;20187;-42
2023/12/21 02:41:12;;;;;;;0.57;0.30;;;;;;;4.64;75.58;97202.81;6135065;28;20715;-43
2023/12/21 02:44:15;;;;;;;0.73;0.37;;;;;;;4.70;76.38;97222.25;6128113;29;20202;-42
2023/12/21 02:47:17;;;;;;;0.47;0.30;;;;;;;4.73;75.89;97227.09;6130931;28;20724;-44
2023/12/21 02:50:20;;;;;;;1.53;0.40;;;;;;;4.68;76.89;97212.91;6114100;29;20206;-45
2023/12/21 02:53:23;;;;;;;0.73;0.30;;;;;;;5.11;72.98;97211.09;6134712;29;20279;-44
2023/12/21 02:56:26;;;;;;;1.80;0.30;;;;;;;4.96;72.21;97171.03;6133391;28;20581;-43
2023/12/21 02:59:29;;;;;;;0.40;0.30;;;;;;;5.04;73.97;97212.19;6132023;28;20215;-41
2023/12/21 03:02:31;;;;;;;1.50;0.30;;;;;;;4.89;72.41;97170.31;6133294;28;20211;-42
2023/12/21 03:05:34;;;;;;;1.70;0.47;;;;;;;5.37;69.91;97196.81;6133982;29;20796;-42
2023/12/21 03:08:37;;;;;;;0.60;0.30;;;;;;;5.35;69.99;97192.78;6136061;28;20213;-42
2023/12/21 03:11:40;;;;;;;0.30;0.23;;;;;;;5.43;69.50;97193.31;6132022;29;20279;-42
2023/12/21 03:14:43;;;;;;;1.13;0.47;;;;;;;5.33;69.57;97171.06;6132335;28;20200;-42
2023/12/21 03:17:46;;;;;;;0.90;0.33;;;;;;;5.13;70.71;97163.38;6132214;28;20205;-45
2023/12/21 03:20:49;;;;;;;0.60;0.40;;;;;;;5.28;69.86;97145.31;6134731;28;20203;-44
2023/12/21 03:23:51;;;;;;;0.30;0.30;;;;;;;5.60;67.23;97134.56;6132617;29;20199;-43
2023/12/21 03:26:54;;;;;;;0.30;0.30;;;;;;;5.43;68.24;97123.81;6131643;28;20196;-43
2023/12/21 03:29:57;;;;;;;0.70;0.40;;;;;;;5.29;68.97;97107.31;6130023;29;20275;-46
2023/12/21 03:33:00;;;;;;;1.80;0.30;;;;;;;5.65;66.99;97108.28;6131140;28;20191;-44
2023/12/21 03:36:04;;;;;;;0.67;0.50;;;;;;;5.45;66.67;97068.91;6132365;28;20196;-44
2023/12/21 03:39:07;;;;;;;0.63;0.30;;;;;;;5.62;66.76;97108.75;6138256;28;20191;-43
2023/12/21 03:42:09;;;;;;;0.40;0.40;;;;;;;5.55;66.73;97106.16;6123276;29;20568;-42
2023/12/21 03:45:11;;;;;;;0.30;0.30;;;;;;;5.42;68.20;97096.59;6137079;28;20287;-43
2023/12/21 03:48:14;;;;;;;0.77;0.37;;;;;;;5.24;69.25;97093.97;6132633;28;20227;-44
2023/12/21 03:51:17;;;;;;;1.70;0.53;;;;;;;5.44;68.85;97083.97;6131563;28;20342;-43
2023/12/21 03:54:19;;;;;;;1.03;0.47;;;;;;;5.67;67.24;97063.94;6132235;28;20242;-42
2023/12/21 03:57:21;;;;;;;0.57;0.30;;;;;;;5.75;67.43;97046.94;6136319;28;20599;-42
2023/12/21 04:00:25;;;;;;;0.30;0.30;;;;;;;5.65;67.87;97052.78;6135711;28;20214;-43
2023/12/21 04:03:27;;;;;;;1.53;0.47;;;;;;;5.85;67.05;97049.84;6136541;28;20205;-43
2023/12/21 04:06:30;;;;;;;0.37;0.30;;;;;;;5.75;67.79;97039.81;6128281;28;20191;-42
2023/12/21 04:09:32;;;;;;;0.33;0.33;;;;;;;5.82;67.54;97031.81;6130887;29;20664;-44
2023/12/21 04:12:34;;;;;;;0.40;0.30;;;;;;;5.60;68.32;97023.59;6134230;28;20250;-43
2023/12/21 04:15:36;;;;;;;0.50;0.30;;;;;;;5.50;69.37;97025.97;6134151;28;20202;-43
2023/12/21 04:18:39;;;;;;;0.50;0.40;;;;;;;5.50;69.10;97016.22;6129503;29;20205;-42
2023/12/21 04:21:41;;;;;;;1.17;0.40;;;;;;;5.26;70.62;97006.59;6115549;29;20227;-43
2023/12/21 04:24:44;;;;;;;0.87;0.30;;;;;;;5.40;70.79;96994.81;6127580;28;20212;-43
2023/12/21 04:27:47;;;;;;;0.40;0.37;;;;;;;5.64;69.89;97001.78;6130347;28;20233;-43
2023/12/21 04:30:50;;;;;;;0.23;0.23;;;;;;;5.64;70.09;97007.06;6134876;29;20269;-44
2023/12/21 04:33:52;;;;;;;0.53;0.40;;;;;;;5.58;70.34;97000.06;6130078;29;20295;-42
2023/12/21 04:36:55;;;;;;;0.33;0.30;;;;;;;5.39;71.70;96987.94;6130392;28;20223;-43
2023/12/21 04:39:57;;;;;;;0.83;0.30;;;;;;;5.38;71.38;96995.06;6137906;28;20195;-43
2023/12/21 04:42:59;;;;;;;0.30;0.30;;;;;;;5.27;73.37;96990.56;6142554;28;20217;-44
2023/12/21 04:46:05;;;;;;;0.90;0.30;;;;;;;5.25;73.49;96994.44;6148679;28;20208;-43
2023/12/21 04:49:08;;;;;;;0.70;0.40;;;;;;;5.73;71.39;96975.84;6119732;29;20266;-43
2023/12/21 04:52:11;;;;;;;0.67;0.23;;;;;;;5.66;71.44;96959.28;6141888;29;20199;-43
2023/12/21 04:55:16;;;;;;;0.37;0.20;;;;;;;5.95;70.64;96966.34;6142127;28;20205;-45
2023/12/21 04:58:19;;;;;;;0.60;0.50;;;;;;;6.06;70.63;96951.53;6132714;29;20700;-43
2023/12/21 05:01:22;;;;;;;0.37;0.30;;;;;;;5.80;71.03;96915.72;6134703;29;20298;-44
2023/12/21 05:04:25;;;;;;;0.23;0.23;;;;;;;6.01;71.10;96951.41;6140639;28;20768;-44
2023/12/21 05:07:30;;;;;;;1.13;0.20;;;;;;;6.14;70.93;96953.81;6138739;28;20193;-45
2023/12/21 05:10:33;;;;;;;2.50;0.40;;;;;;;5.96;71.17;96938.09;6122145;29;20233;-44
2023/12/21 05:13:35;;;;;;;0.20;0.20;;;;;;;5.80;72.59;96928.94;6136015;28;20714;-44
2023/12/21 05:16:39;;;;;;;0.50;0.30;;;;;;;5.56;75.06;96922.84;6137047;28;20223;-43
2023/12/21 05:19:44;;;;;;;0.40;0.30;;;;;;;5.45;75.25;96923.63;6139215;28;20573;-44
2023/12/21 05:22:46;;;;;;;0.20;0.20;;;;;;;5.37;76.87;96935.34;6135615;29;20202;-45
2023/12/21 05:25:50;;;;;;;0.40;0.20;;;;;;;5.59;75.97;96922.41;6141189;29;20275;-44
2023/12/21 05:28:53;;;;;;;0.30;0.30;;;;;;;5.61;75.45;96927.44;6130883;28;20204;-46
2023/12/21 05:31:56;;;;;;;0.23;0.20;;;;;;;5.85;74.46;96925.63;6132290;28;20206;-44
2023/12/21 05:34:59;;;;;;;0.40;0.30;;;;;;;5.83;74.14;96909.19;6136316;29;20224;-44
2023/12/21 05:38:02;;;;;;;0.30;0.30;;;;;;;5.89;74.50;96903.78;6134709;28;20205;-44
2023/12/21 05:41:04;;;;;;;0.27;0.20;;;;;;;5.73;75.40;96916.91;6137237;28;20325;-45
2023/12/21 05:44:07;;;;;;;0.07;0.07;;;;;;;6.03;74.51;96896.47;6141108;28;20201;-43
2023/12/21 05:47:10;;;;;;;0.10;0.10;;;;;;;5.97;74.46;96878.88;6135782;28;20221;-44
2023/12/21 05:50:12;;;;;;;0.20;0.20;;;;;;;6.15;73.88;96897.22;6135252;28;20198;-43
2023/12/21 05:53:15;;;;;;;0.10;0.10;;;;;;;6.28;73.83;96882.97;6124111;28;20202;-44
2023/12/21 05:56:17;;;;;;;0.87;0.20;;;;;;;6.26;73.86;96871.03;6130213;28;20707;-43
2023/12/21 05:59:20;;;;;;;0.33;0.13;;;;;;;6.24;74.47;96876.53;6131057;28;20205;-43
2023/12/21 06:02:22;;;;;;;0.20;0.20;;;;;;;6.17;74.86;96874.03;6136351;28;20247;-43
2023/12/21 06:05:24;;;;;;;0.10;0.10;;;;;;;6.00;76.55;96882.88;6130147;28;20246;-43
2023/12/21 06:08:26;;;;;;;0.20;0.17;;;;;;;6.24;75.00;96886.31;6130300;28;20201;-44
2023/12/21 06:11:29;;;;;;;1.03;0.30;;;;;;;6.24;75.00;96895.03;6120325;28;20262;-43
2023/12/21 06:14:31;;;;;;;0.10;0.10;;;;;;;6.03;77.55;96879.78;6124722;29;20210;-44
2023/12/21 06:17:34;;;;;;;0.20;0.20;;;;;;;5.95;77.42;96887.03;6128216;28;20265;-44
2023/12/21 06:20:36;;;;;;;0.17;0.17;;;;;;;5.99;76.34;96905.06;6131427;28;20276;-46
2023/12/21 06:23:38;;;;;;;0.20;0.20;;;;;;;5.99;77.36;96886.56;6127350;28;20755;-43
2023/12/21 06:26:41;;;;;;;0.20;0.20;;;;;;;5.97;76.79;96892.09;6128010;28;20227;-44
2023/12/21 06:29:44;;;;;;;0.23;0.10;;;;;;;5.88;77.81;96894.25;6130187;28;20295;-43
2023/12/21 06:32:46;;;;;;;0.20;0.10;;;;;;;5.87;78.10;96897.94;6128915;28;20837;-43
2023/12/21 06:35:48;;;;;;;0.10;0.10;;;;;;;5.89;77.89;96881.84;6132862;28;20656;-44
2023/12/21 06:38:52;;;;;;;0.10;0.10;;;;;;;5.86;78.77;96869.06;6120533;28;20210;-44
2023/12/21 06:41:54;;;;;;;0.10;0.10;;;;;;;5.83;79.44;96864.28;6129937;28;20297;-44
2023/12/21 06:44:56;;;;;;;0.20;0.10;;;;;;;5.89;80.29;96877.34;6127430;28;20201;-43
2023/12/21 06:48:00;;;;;;;0.10;0.10;;;;;;;6.36;77.51;96889.75;6136812;28;20199;-43
2023/12/21 06:51:02;;;;;;;0.00;0.00;;;;;;;6.36;77.74;96892.38;6130295;28;20194;-45
2023/12/21 06:54:06;;;;;;;0.20;0.20;;;;;;;6.15;78.92;96870.78;6127269;29;20203;-44
2023/12/21 06:57:08;;;;;;;0.10;0.10;;;;;;;6.32;78.57;96886.75;6132277;28;20200;-45
2023/12/21 07:00:11;;;;;;;0.17;0.10;;;;;;;6.32;79.58;96892.03;6134864;28;20694;-44
2023/12/21 07:03:13;;;;;;;0.20;0.10;;;;;;;6.31;80.41;96885.16;6115068;28;20665;-44
2023/12/21 07:06:15;;;;;;;0.10;0.10;;;;;;;6.09;82.24;96837.34;6112985;28;20278;-45
2023/12/21 07:09:19;;;;;;;0.10;0.10;;;;;;;5.90;86.72;96839.31;6140108;28;20196;-44
2023/12/21 07:12:24;;;;;;;0.40;0.20;;;;;;;5.62;89.11;96847.16;6136859;29;20611;-44
2023/12/21 07:15:26;;;;;;;0.20;0.20;;;;;;;5.79;88.64;96865.75;6135529;28;20203;-44
2023/12/21 07:18:28;;;;;;;0.20;0.20;;;;;;;5.66;89.93;96864.97;6137238;28;20675;-43
2023/12/21 07:21:31;;;;;;;0.10;0.10;;;;;;;5.56;91.98;96856.00;6136090;28;20245;-43
2023/12/21 07:24:33;;;;;;;0.20;0.20;;;;;;;5.66;92.15;96857.06;6138509;29;20256;-44
2023/12/21 07:27:35;;;;;;;0.20;0.10;;;;;;;5.87;88.90;96849.56;6123075;28;20193;-44
2023/12/21 07:30:37;;;;;;;0.20;0.20;;;;;;;5.57;92.07;96831.22;6130342;28;20569;-45
2023/12/21 07:33:40;;;;;;;0.10;0.10;;;;;;;5.91;90.50;96851.53;6132447;28;20674;-45
2023/12/21 07:36:42;;;;;;;0.10;0.10;;;;;;;6.01;89.16;96840.38;6126460;29;20686;-44
2023/12/21 07:39:44;;;;;;;0.10;0.10;;;;;;;6.06;89.21;96832.56;6133009;28;20225;-44
2023/12/21 07:42:46;;;;;;;0.73;0.10;;;;;;;5.98;88.99;96824.97;6116477;29;20201;-44
2023/12/21 07:45:49;;;;;;;0.10;0.10;;;;;;;6.02;89.35;96831.41;6114806;29;20208;-45
2023/12/21 07:48:51;;;;;;;0.10;0.10;;;;;;;6.14;89.50;96829.53;6124716;28;20200;-44
2023/12/21 07:51:53;;;;;;;0.10;0.10;;;;;;;6.20;87.96;96831.22;6112395;29;20228;-45
2023/12/21 07:54:56;;;;;;;0.50;0.20;;;;;;;6.10;90.68;96817.78;6125869;28;20565;-44
2023/12/21 07:57:59;;;;;;;0.10;0.10;;;;;;;5.98;92.14;96819.69;6132680;28;20193;-45
2023/12/21 08:01:02;;;;;;;0.10;0.10;;;;;;;6.20;90.36;96811.91;6133956;28;20237;-43
2023/12/21 08:04:05;;;;;;;0.00;0.00;;;;;;;6.05;90.63;96815.06;6131010;29;20198;-45
2023/12/21 08:07:07;;;;;;;0.47;0.10;;;;;;;6.29;89.90;96828.22;6135438;28;20718;-44
2023/12/21 08:10:09;;;;;;;0.10;0.10;;;;;;;6.14;93.59;96787.22;6135544;28;20199;-44
2023/12/21 08:13:13;;;;;;;0.17;0.17;;;;;;;6.17;94.79;96826.41;6132567;28;20204;-46
2023/12/21 08:16:17;;;;;;;0.10;0.10;;;;;;;6.48;91.58;96829.66;6125878;29;20665;-45
2023/12/21 08:19:19;;;;;;;1.50;0.30;;;;;;;6.32;94.95;96819.81;6135376;28;20349;-46
2023/12/21 08:22:22;;;;;;;0.47;0.20;;;;;;;5.89;99.44;96784.84;6133902;28;20221;-46
2023/12/21 08:25:25;;;;;;;0.20;0.03;;;;;;;6.01;100.00;96818.41;6137284;28;20229;-46
2023/12/21 08:28:29;;;;;;;0.10;0.10;;;;;;;5.81;100.00;96782.59;6133781;29;20205;-45
2023/12/21 08:31:32;;;;;;;0.10;0.10;;;;;;;6.11;97.17;96805.41;6133428;28;20197;-44
2023/12/21 08:34:34;;;;;;;0.10;0.10;;;;;;;6.51;94.56;96807.22;6133694;28;20580;-45
2023/12/21 08:37:37;;;;;;;0.10;0.10;;;;;;;6.41;95.46;96786.66;6134363;28;20197;-44
2023/12/21 08:40:40;;;;;;;0.10;0.10;;;;;;;6.38;95.95;96787.94;6136785;28;20236;-45
2023/12/21 08:43:42;;;;;;;0.00;0.00;;;;;;;6.57;93.47;96777.94;6132902;28;20691;-44
2023/12/21 08:46:45;;;;;;;0.40;0.10;;;;;;;6.44;97.05;96778.25;6137459;28;20197;-44
2023/12/21 08:49:47;;;;;;;1.07;0.20;;;;;;;6.40;97.26;96779.75;6131990;28;20646;-43
2023/12/21 08:52:49;;;;;;;0.10;0.10;;;;;;;6.58;93.33;96776.91;6131511;28;20255;-43
2023/12/21 08:55:52;;;;;;;1.50;0.30;;;;;;;6.89;90.57;96761.53;6125249;29;21014;-44
2023/12/21 08:58:56;;;;;;;0.20;0.20;;;;;;;7.04;88.55;96760.97;6135643;28;20341;-43
2023/12/21 09:01:59;;;;;;;0.23;0.20;;;;;;;6.96;88.19;96744.44;6131002;28;20223;-43
2023/12/21 09:05:02;;;;;;;0.53;0.10;;;;;;;6.98;89.60;96734.41;6131934;28;20199;-44
2023/12/21 09:08:05;;;;;;;0.17;0.00;;;;;;;6.87;92.28;96745.88;6132503;28;20206;-43
2023/12/21 09:11:07;;;;;;;0.10;0.10;;;;;;;7.14;85.49;96697.56;6133940;28;20239;-43
2023/12/21 09:14:10;;;;;;;0.10;0.10;;;;;;;7.13;88.95;96696.75;6129063;28;20265;-44
2023/12/21 09:17:14;;;;;;;0.10;0.10;;;;;;;7.38;84.24;96714.03;6127336;28;20704;-44
2023/12/21 09:20:16;;;;;;;0.10;0.10;;;;;;;7.30;87.24;96712.63;6144947;28;20235;-46
2023/12/21 09:23:19;;;;;;;0.20;0.10;;;;;;;7.17;87.64;96699.72;6136524;28;20199;-45
2023/12/21 09:26:21;;;;;;;0.10;0.10;;;;;;;7.13;88.28;96690.66;6130474;28;20244;-46
2023/12/21 09:29:23;;;;;;;0.10;0.10;;;;;;;7.41;85.49;96658.72;6133035;28;20199;-44
2023/12/21 09:32:26;;;;;;;0.10;0.10;;;;;;;7.46;86.14;96629.63;6132501;28;20205;-44
2023/12/21 09:35:28;;;;;;;0.00;0.00;;;;;;;7.54;84.70;96646.13;6133169;28;20209;-45
2023/12/21 09:38:31;;;;;;;0.20;0.10;;;;;;;7.45;85.16;96630.69;6134616;28;20197;-45
2023/12/21 09:41:34;;;;;;;0.10;0.10;;;;;;;7.67;81.34;96635.94;6131988;28;20221;-44
2023/12/21 09:44:37;;;;;;;0.07;0.07;;;;;;;7.74;81.34;96604.75;6132072;28;20686;-43
2023/12/21 09:47:39;;;;;;;0.10;0.10;;;;;;;7.81;80.54;96601.91;6132474;28;20208;-44
2023/12/21 09:50:46;;;;;;;0.17;0.17;;;;;;;7.74;80.73;96583.56;6130369;28;20195;-44
2023/12/21 09:53:54;;;;;;;0.20;0.20;;;;;;;7.86;80.51;96586.03;6132325;28;20674;-44
2023/12/21 09:56:56;;;;;;;0.40;0.10;;;;;;;8.00;77.84;96549.31;6125169;29;20209;-45
2023/12/21 10:00:01;;;;;;;0.33;0.20;;;;;;;7.83;80.64;96589.22;6132681;28;20194;-45
2023/12/21 10:03:12;;;;;;;0.10;0.10;;;;;;;7.87;80.42;96569.06;6132891;29;20227;-45
2023/12/21 10:06:15;;;;;;;0.97;0.20;;;;;;;8.06;77.92;96566.06;6120290;28;20209;-44
2023/12/21 10:09:19;;;;;;;0.00;0.00;;;;;;;8.17;75.80;96554.47;6133856;28;20228;-43
2023/12/21 10:12:21;;;;;;;0.23;0.10;;;;;;;8.20;75.24;96538.06;6137841;28;20646;-44
2023/12/21 10:15:23;;;;;;;0.10;0.10;;;;;;;8.27;76.96;96554.53;6135466;28;20200;-45
2023/12/21 10:18:29;;;;;;;0.20;0.10;;;;;;;8.22;75.37;96507.56;6134567;29;20286;-46
2023/12/21 10:21:32;;;;;;;0.27;0.10;;;;;;;8.24;75.36;96517.94;6132141;28;20245;-45
2023/12/21 10:24:34;;;;;;;0.20;0.17;;;;;;;8.34;74.66;96536.56;6135328;28;20292;-45
2023/12/21 10:27:37;;;;;;;0.10;0.10;;;;;;;8.34;74.36;96507.38;6133266;28;20202;-44
2023/12/21 10:30:39;;;;;;;0.17;0.10;;;;;;;8.51;72.77;96502.72;6133397;28;20195;-43
2023/12/21 10:33:42;;;;;;;0.30;0.17;;;;;;;8.54;72.91;96490.81;6129750;29;20199;-45
2023/12/21 10:36:45;;;;;;;0.10;0.10;;;;;;;8.40;75.72;96506.38;6111826;28;20280;-45
2023/12/21 10:39:47;;;;;;;0.10;0.10;;;;;;;8.69;72.65;96487.41;6129413;28;20235;-45
2023/12/21 10:42:50;;;;;;;0.20;0.20;;;;;;;8.67;72.20;96468.28;6127182;29;20215;-44
2023/12/21 10:45:52;;;;;;;0.10;0.10;;;;;;;8.76;71.29;96470.19;6132605;28;20682;-45
2023/12/21 10:48:59;;;;;;;0.43;0.20;;;;;;;8.74;71.99;96448.41;6120886;28;20209;-44
2023/12/21 10:52:03;;;;;;;0.20;0.20;;;;;;;8.62;72.32;96436.41;6134208;28;20204;-45
2023/12/21 10:55:10;;;;;;;0.10;0.10;;;;;;;8.64;73.17;96436.97;6128000;29;20250;-45
2023/12/21 10:58:13;;;;;;;0.23;0.17;;;;;;;9.08;69.67;96437.38;6132364;28;20202;-45
2023/12/21 11:01:15;;;;;;;0.30;0.13;;;;;;;8.96;70.63;96424.31;6128014;28;20262;-44
2023/12/21 11:04:22;;;;;;;1.30;0.20;;;;;;;9.09;69.37;96395.66;6126678;28;20238;-44
2023/12/21 11:07:26;;;;;;;0.70;0.30;;;;;;;8.96;70.07;96394.28;6126445;28;20189;-44
2023/12/21 11:10:28;;;;;;;0.37;0.20;;;;;;;8.98;73.57;96376.25;6123770;29;20276;-48
2023/12/21 11:13:30;;;;;;;0.73;0.23;;;;;;;8.92;70.97;96378.09;6127517;28;20202;-44
2023/12/21 11:16:41;;;;;;;0.47;0.10;;;;;;;8.85;72.89;96382.06;6140530;28;20202;-46
2023/12/21 11:19:46;;;;;;;0.33;0.30;;;;;;;8.83;73.83;96394.81;6138080;29;20573;-45
2023/12/21 11:22:48;;;;;;;0.10;0.10;;;;;;;8.90;71.35;96393.47;6134156;28;20722;-44
2023/12/21 11:25:57;;;;;;;0.23;0.10;;;;;;;9.18;70.30;96376.28;6130971;28;20203;-45
2023/12/21 11:29:07;;;;;;;0.10;0.10;;;;;;;9.15;69.10;96368.81;6132190;28;20210;-47
2023/12/21 11:32:09;;;;;;;0.60;0.30;;;;;;;9.33;67.06;96367.50;6136679;28;20363;-45
2023/12/21 11:35:22;;;;;;;0.30;0.30;;;;;;;9.32;67.60;96360.59;6138430;29;20667;-45
2023/12/21 11:38:45;;;;;;;0.10;0.10;;;;;;;9.35;67.27;96338.00;6140430;28;20202;-46
2023/12/21 11:41:58;;;;;;;0.37;0.20;;;;;;;9.17;68.42;96318.88;6137663;28;20214;-47
2023/12/21 11:45:02;;;;;;;0.20;0.13;;;;;;;9.22;67.82;96337.47;6136988;28;20246;-45
2023/12/21 11:48:06;;;;;;;0.73;0.20;;;;;;;9.28;67.64;96287.78;6136026;29;20671;-46
2023/12/21 11:51:08;;;;;;;0.23;0.20;;;;;;;9.19;68.14;96268.13;6136549;28;20204;-45
2023/12/21 11:54:10;;;;;;;0.10;0.10;;;;;;;9.29;67.11;96282.19;6136551;28;20627;-46
2023/12/21 11:57:14;;;;;;;0.07;0.07;;;;;;;9.32;66.82;96267.59;6140608;28;20194;-46
2023/12/21 12:00:17;;;;;;;0.10;0.10;;;;;;;9.17;67.89;96272.94;6135908;29;20277;-47
2023/12/21 12:03:21;;;;;;;0.10;0.10;;;;;;;9.01;69.34;96262.31;6137327;28;20672;-45
2023/12/21 12:06:25;;;;;;;0.23;0.23;;;;;;;9.22;67.53;96251.66;6142864;28;20199;-44
2023/12/21 12:09:27;;;;;;;0.20;0.20;;;;;;;9.16;68.60;96242.91;6139795;28;20553;-45
2023/12/21 12:12:30;;;;;;;0.70;0.17;;;;;;;9.00;69.44;96239.44;6136823;28;20325;-46
2023/12/21 12:15:32;;;;;;;0.00;0.00;;;;;;;9.05;68.75;96220.84;6140127;28;20571;-45
2023/12/21 12:18:39;;;;;;;0.43;0.20;;;;;;;8.82;70.54;96178.94;6132566;28;20389;-45
2023/12/21 12:21:41;;;;;;;0.57;0.10;;;;;;;8.86;71.41;96187.94;6132194;28;20301;-45
2023/12/21 12:24:45;;;;;;;0.10;0.10;;;;;;;8.78;71.65;96196.47;6128902;28;20659;-45
2023/12/21 12:27:48;;;;;;;0.10;0.10;;;;;;;8.90;70.24;96186.34;6127216;28;20710;-44
2023/12/21 12:30:54;;;;;;;0.20;0.20;;;;;;;8.98;70.15;96185.81;6137253;28;20217;-46
2023/12/21 12:33:56;;;;;;;0.10;0.10;;;;;;;9.34;67.82;96151.19;6139335;29;20203;-45
2023/12/21 12:37:01;;;;;;;0.00;0.00;;;;;;;9.22;68.62;96156.00;6136555;28;20691;-46
2023/12/21 12:40:05;;;;;;;0.20;0.20;;;;;;;9.15;69.31;96147.53;6137991;28;20198;-45
2023/12/21 12:43:08;;;;;;;0.10;0.10;;;;;;;9.08;71.03;96134.53;6135476;29;20210;-45
2023/12/21 12:46:11;;;;;;;0.40;0.10;;;;;;;9.09;70.00;96137.97;6126920;28;20270;-45
2023/12/21 12:49:13;;;;;;;0.20;0.10;;;;;;;9.12;68.54;96113.53;6129917;28;20195;-45
2023/12/21 12:52:20;;;;;;;0.10;0.10;;;;;;;9.33;68.82;96128.34;6123255;29;20230;-45
2023/12/21 12:55:23;;;;;;;0.23;0.23;;;;;;;9.47;66.84;96104.63;6133221;29;20255;-46
2023/12/21 12:58:29;;;;;;;0.20;0.20;;;;;;;9.34;68.37;96092.72;6130939;29;20275;-47
2023/12/21 13:01:32;;;;;;;0.30;0.27;;;;;;;9.19;69.89;96095.44;6130901;28;20359;-44
2023/12/21 13:04:34;;;;;;;0.27;0.10;;;;;;;9.16;69.03;96104.75;6134759;28;20203;-46
2023/12/21 13:07:39;;;;;;;0.10;0.10;;;;;;;9.64;65.97;96099.75;6138555;28;20203;-46
2023/12/21 13:10:41;;;;;;;0.67;0.10;;;;;;;9.57;66.96;96093.94;6140641;29;20259;-45
2023/12/21 13:13:43;;;;;;;0.10;0.10;;;;;;;9.52;66.10;96093.97;6131234;28;20207;-44
2023/12/21 13:16:45;;;;;;;0.10;0.10;;;;;;;9.92;64.18;96062.88;6129400;28;20274;-45
2023/12/21 13:19:48;;;;;;;0.87;0.10;;;;;;;9.93;63.87;96061.81;6134583;28;20285;-47
2023/12/21 13:22:50;;;;;;;0.10;0.10;;;;;;;10.03;64.59;96070.50;6139132;28;20218;-46
2023/12/21 13:25:52;;;;;;;0.40;0.10;;;;;;;9.81;66.61;96064.81;6132384;28;20675;-45
2023/12/21 13:28:58;;;;;;;0.10;0.10;;;;;;;9.77;66.06;96053.94;6128784;28;20325;-44
2023/12/21 13:32:04;;;;;;;0.10;0.10;;;;;;;9.64;66.98;96043.91;6128839;28;20203;-45
2023/12/21 13:35:06;;;;;;;0.20;0.20;;;;;;;9.38;71.21;96055.78;6135599;29;20682;-46
2023/12/21 13:38:08;;;;;;;0.10;0.10;;;;;;;9.57;69.57;96035.47;6123100;29;20661;-44
2023/12/21 13:41:10;;;;;;;0.47;0.40;;;;;;;9.29;73.65;96039.59;6136580;28;20234;-45
2023/12/21 13:44:13;;;;;;;1.20;0.10;;;;;;;8.93;75.54;96028.34;6136864;28;20198;-42
2023/12/21 13:47:27;;;;;;;0.20;0.20;;;;;;;8.89;77.96;96036.03;6134783;28;20204;-44
2023/12/21 13:50:29;;;;;;;0.10;0.10;;;;;;;8.63;83.51;96026.56;6138098;28;20199;-46
2023/12/21 13:53:31;;;;;;;2.20;0.20;;;;;;;8.36;91.39;96019.72;6134969;28;20202;-45
2023/12/21 13:56:34;;;;;;;0.50;0.10;;;;;;;8.19;93.54;96019.19;6138083;28;20264;-44
2023/12/21 13:59:36;;;;;;;1.40;0.10;;;;;;;8.02;94.21;96004.34;6140755;28;20590;-45
2023/12/21 14:02:38;;;;;;;0.53;0.10;;;;;;;7.85;99.39;96017.09;6118536;29;20214;-45
2023/12/21 14:05:40;;;;;;;0.30;0.10;;;;;;;7.61;100.00;95994.81;6132383;28;20187;-44
2023/12/21 14:08:43;;;;;;;0.10;0.10;;;;;;;7.45;100.00;95967.50;6129405;28;20542;-45
2023/12/21 14:11:45;;;;;;;0.57;0.20;;;;;;;7.40;100.00;95970.16;6127219;28;20234;-45
2023/12/21 14:14:49;;;;;;;0.10;0.10;;;;;;;7.61;99.71;95961.16;6134490;28;20331;-44
2023/12/21 14:17:51;;;;;;;0.20;0.17;;;;;;;7.75;98.06;95956.91;6142460;28;20225;-47
2023/12/21 14:20:54;;;;;;;0.60;0.10;;;;;;;7.63;98.53;95959.03;6136643;29;20203;-47
2023/12/21 14:23:56;;;;;;;0.10;0.10;;;;;;;7.68;96.21;95937.03;6133973;28;20218;-46
2023/12/21 14:26:58;;;;;;;0.20;0.20;;;;;;;7.82;95.38;95934.63;6124983;28;20275;-48
2023/12/21 14:30:00;;;;;;;0.23;0.13;;;;;;;7.88;94.56;95934.38;6125063;28;20678;-45
2023/12/21 14:33:03;;;;;;;0.23;0.20;;;;;;;7.74;96.81;95933.34;6126238;28;20709;-44